Time;durP1;ratioP1;P1;durP2;ratioP2;P2;SDS_P1;SDS_P2;PMS_P1;PMS_P2;Temp;Humidity;BMP_temperature;BMP_pressure;BME280_temperature;BME280_humidity;BME280_pressure;Samples;Min_cycle;Max_cycle;Signal;HPM_P1;HPM_P2
2022/06/18 00:01:59;;;;;;;6.00;2.60;;;;;14.40;97852.40;;;;110594;1253;41150;-64
2022/06/18 00:04:28;;;;;;;5.70;2.70;;;;;14.40;97849.20;;;;110597;1253;41350;-66
2022/06/18 00:07:04;;;;;;;5.40;2.50;;;;;14.38;97857.80;;;;110707;1253;41136;-65
2022/06/18 00:09:42;;;;;;;6.50;2.70;;;;;14.20;97855.20;;;;110455;1253;42083;-65
2022/06/18 00:15:17;;;;;;;6.30;2.60;;;;;14.10;97857.80;;;;110609;1253;41776;-66
2022/06/18 00:17:47;;;;;;;7.00;3.20;;;;;14.10;97854.00;;;;110694;1253;41158;-66
2022/06/18 00:20:18;;;;;;;8.10;2.80;;;;;14.10;97851.00;;;;110531;1255;42121;-66
2022/06/18 00:22:51;;;;;;;7.50;2.90;;;;;14.08;97851.20;;;;110528;1254;41680;-65
2022/06/18 00:25:29;;;;;;;5.60;2.50;;;;;14.00;97855.40;;;;110600;1253;41331;-64
2022/06/18 00:28:00;;;;;;;7.10;2.50;;;;;14.00;97861.20;;;;110678;1253;41264;-64
2022/06/18 00:30:31;;;;;;;6.70;2.90;;;;;13.92;97860.00;;;;110450;1253;41796;-66
2022/06/18 00:33:01;;;;;;;6.70;2.90;;;;;14.00;97860.40;;;;110569;1253;41510;-63
2022/06/18 00:35:31;;;;;;;7.90;2.80;;;;;14.00;97863.00;;;;110499;1254;41730;-65
2022/06/18 00:38:03;;;;;;;6.50;3.10;;;;;13.96;97865.00;;;;110519;1253;41618;-66
2022/06/18 00:40:36;;;;;;;6.80;3.00;;;;;13.90;97867.60;;;;110523;1253;41147;-65
2022/06/18 00:43:13;;;;;;;6.00;2.90;;;;;13.90;97871.80;;;;110584;1253;41262;-64
2022/06/18 00:45:43;;;;;;;7.40;2.80;;;;;13.90;97870.60;;;;110592;1253;41800;-65
2022/06/18 00:48:27;;;;;;;6.90;2.80;;;;;13.80;97866.60;;;;110489;1254;41724;-65
2022/06/18 00:51:15;;;;;;;6.10;2.40;;;;;13.80;97864.20;;;;110530;1253;41622;-64
2022/06/18 00:53:53;;;;;;;8.10;2.80;;;;;13.74;97862.20;;;;110486;1255;42099;-65
2022/06/18 00:56:57;;;;;;;6.70;2.70;;;;;13.70;97859.20;;;;110605;1253;41743;-65
2022/06/18 00:59:37;;;;;;;6.40;2.90;;;;;13.70;97865.40;;;;110496;1254;42172;-65
2022/06/18 01:02:14;;;;;;;5.60;2.30;;;;;13.62;97864.40;;;;110410;1256;41359;-65
2022/06/18 01:04:44;;;;;;;5.40;2.40;;;;;13.60;97869.80;;;;110557;1253;41188;-67
2022/06/18 01:07:36;;;;;;;5.90;2.40;;;;;13.60;97868.60;;;;110668;1252;41438;-65
2022/06/18 01:10:16;;;;;;;4.60;2.30;;;;;13.52;97869.20;;;;110505;1253;41276;-64
2022/06/18 01:12:45;;;;;;;5.30;2.40;;;;;13.50;97871.00;;;;110548;1254;41155;-65
2022/06/18 01:15:20;;;;;;;6.40;2.50;;;;;13.50;97870.60;;;;110588;1253;41940;-65
2022/06/18 01:17:54;;;;;;;6.00;2.40;;;;;13.40;97873.00;;;;110498;1255;41133;-65
2022/06/18 01:20:25;;;;;;;5.00;2.20;;;;;13.40;97866.20;;;;110644;1253;41892;-65
2022/06/18 01:23:15;;;;;;;8.20;2.50;;;;;13.40;97861.60;;;;110504;1253;41190;-64
2022/06/18 01:25:47;;;;;;;6.30;2.50;;;;;13.40;97859.60;;;;110433;1254;41166;-66
2022/06/18 01:28:17;;;;;;;4.30;2.10;;;;;13.40;97856.80;;;;110505;1254;41707;-66
2022/06/18 01:30:49;;;;;;;7.20;2.70;;;;;13.40;97850.20;;;;110487;1254;41255;-65
2022/06/18 01:33:19;;;;;;;5.60;2.60;;;;;13.40;97850.80;;;;110510;1253;41668;-65
2022/06/18 01:35:53;;;;;;;5.10;2.30;;;;;13.40;97848.40;;;;110554;1253;41276;-65
2022/06/18 01:38:26;;;;;;;6.10;2.50;;;;;13.40;97853.40;;;;110541;1254;41157;-64
2022/06/18 01:40:56;;;;;;;;;;;;;13.40;97852.00;;;;110685;1253;41710;-64
2022/06/18 01:43:27;;;;;;;5.70;2.40;;;;;13.30;97854.40;;;;110673;1254;41142;-65
2022/06/18 01:45:59;;;;;;;7.10;2.90;;;;;13.30;97855.60;;;;110596;1253;41169;-66
2022/06/18 01:48:39;;;;;;;5.30;2.60;;;;;13.30;97855.20;;;;110461;1254;41721;-66
2022/06/18 01:51:21;;;;;;;4.80;2.20;;;;;13.30;97850.60;;;;110497;1253;42225;-65
2022/06/18 01:54:13;;;;;;;7.10;2.50;;;;;13.20;97850.20;;;;110706;1253;41257;-65
2022/06/18 01:56:50;;;;;;;6.20;2.40;;;;;13.20;97849.00;;;;110659;1253;41804;-65
2022/06/18 01:59:30;;;;;;;7.50;2.90;;;;;13.20;97849.60;;;;110639;1253;41642;-65
2022/06/18 02:02:03;;;;;;;4.30;2.20;;;;;13.10;97855.20;;;;110493;1254;41740;-65
2022/06/18 02:04:34;;;;;;;6.70;2.90;;;;;13.10;97858.60;;;;110512;1254;41994;-64
2022/06/18 02:07:05;;;;;;;;;;;;;13.08;97861.40;;;;110589;1254;42414;-64
2022/06/18 02:09:55;;;;;;;;;;;;;13.00;97862.80;;;;110389;1254;41879;-65
2022/06/18 02:12:28;;;;;;;7.60;3.00;;;;;12.90;97866.60;;;;110469;1253;42487;-64
2022/06/18 02:15:04;;;;;;;6.80;2.90;;;;;12.90;97867.40;;;;110544;1255;41895;-65
2022/06/18 02:17:36;;;;;;;6.30;2.80;;;;;12.90;97863.60;;;;110528;1254;41330;-65
2022/06/18 02:20:15;;;;;;;8.90;2.60;;;;;12.96;97868.60;;;;110744;1253;41251;-65
2022/06/18 02:22:51;;;;;;;7.40;2.80;;;;;13.00;97867.20;;;;110627;1253;41254;-65
2022/06/18 02:25:27;;;;;;;5.90;2.60;;;;;13.00;97874.20;;;;110538;1253;41514;-65
2022/06/18 02:28:02;;;;;;;6.10;2.60;;;;;13.00;97871.00;;;;110552;1254;41187;-66
2022/06/18 02:30:35;;;;;;;6.50;2.90;;;;;13.02;97873.40;;;;110648;1253;41265;-65
2022/06/18 02:33:45;;;;;;;7.10;2.80;;;;;13.08;97875.00;;;;110554;1254;41555;-64
2022/06/18 02:36:23;;;;;;;6.70;2.80;;;;;13.10;97876.40;;;;110573;1254;41153;-65
2022/06/18 02:38:58;;;;;;;5.80;2.70;;;;;13.06;97878.60;;;;110535;1254;41505;-65
2022/06/18 02:41:28;;;;;;;5.90;2.50;;;;;13.00;97879.40;;;;110505;1254;41144;-65
2022/06/18 02:43:58;;;;;;;6.10;2.60;;;;;13.00;97879.80;;;;110543;1254;41467;-65
2022/06/18 02:46:29;;;;;;;6.20;2.50;;;;;13.00;97884.60;;;;110505;1254;41153;-65
2022/06/18 02:49:03;;;;;;;5.50;2.60;;;;;12.94;97886.60;;;;110583;1254;41276;-65
2022/06/18 02:51:35;;;;;;;5.70;2.60;;;;;12.90;97887.40;;;;110548;1254;41241;-66
2022/06/18 02:54:05;;;;;;;;;;;;;12.90;97892.20;;;;110543;1254;41155;-64
2022/06/18 02:56:36;;;;;;;6.10;3.00;;;;;12.90;97892.00;;;;110626;1254;41201;-65
2022/06/18 02:59:06;;;;;;;7.70;3.20;;;;;12.90;97891.60;;;;110559;1254;41937;-66
2022/06/18 03:01:37;;;;;;;7.80;3.60;;;;;12.90;97896.80;;;;110570;1254;41158;-65
2022/06/18 03:04:10;;;;;;;7.80;3.70;;;;;12.98;97895.80;;;;110557;1252;42065;-63
2022/06/18 03:06:40;;;;;;;9.20;3.80;;;;;13.00;97892.20;;;;110686;1253;41773;-67
2022/06/18 03:09:11;;;;;;;8.10;3.60;;;;;13.00;97898.20;;;;110604;1254;41159;-65
2022/06/18 03:14:32;;;;;;;5.90;2.60;;;;;13.00;97898.40;;;;110538;1254;41153;-64
2022/06/18 03:17:03;;;;;;;6.40;2.80;;;;;12.98;97902.00;;;;110582;1254;41248;-64
2022/06/18 03:19:44;;;;;;;7.00;3.20;;;;;13.00;97904.60;;;;110462;1254;41157;-65
2022/06/18 03:22:17;;;;;;;6.60;3.10;;;;;12.90;97902.00;;;;110646;1254;41256;-65
2022/06/18 03:24:47;;;;;;;8.50;3.50;;;;;12.80;97911.20;;;;110542;1254;41152;-65
2022/06/18 03:27:18;;;;;;;8.10;3.60;;;;;12.70;97913.20;;;;110496;1255;41731;-64
2022/06/18 03:29:52;;;;;;;11.20;4.30;;;;;12.64;97914.80;;;;110533;1254;41302;-65
2022/06/18 03:32:23;;;;;;;8.60;4.10;;;;;12.50;97914.80;;;;110457;1254;41804;-64
2022/06/18 03:34:53;;;;;;;7.80;3.70;;;;;12.60;97915.80;;;;110461;1254;41158;-64
2022/06/18 03:37:24;;;;;;;8.90;4.30;;;;;12.56;97919.00;;;;110554;1253;41178;-65
2022/06/18 03:39:53;;;;;;;8.80;4.30;;;;;12.50;97919.00;;;;110550;1254;41153;-65
2022/06/18 03:42:23;;;;;;;8.70;3.90;;;;;12.50;97914.60;;;;110598;1254;42173;-64
2022/06/18 03:44:53;;;;;;;7.30;3.20;;;;;12.60;97913.40;;;;110596;1254;41267;-65
2022/06/18 03:47:23;;;;;;;7.90;3.40;;;;;12.66;97911.00;;;;110579;1254;41424;-65
2022/06/18 03:49:52;;;;;;;7.20;3.40;;;;;12.70;97916.20;;;;110529;1254;41204;-64
2022/06/18 03:52:22;;;;;;;8.60;4.10;;;;;12.80;97921.00;;;;110483;1256;41274;-65
2022/06/18 03:54:52;;;;;;;8.10;4.00;;;;;12.88;97910.60;;;;110578;1254;41166;-65
2022/06/18 03:57:22;;;;;;;10.40;3.90;;;;;12.90;97910.00;;;;110456;1254;41732;-64
2022/06/18 03:59:52;;;;;;;7.80;3.80;;;;;12.90;97911.60;;;;110588;1254;41172;-65
2022/06/18 04:02:23;;;;;;;12.70;4.20;;;;;13.00;97911.20;;;;110576;1254;41142;-64
2022/06/18 04:04:52;;;;;;;9.70;4.40;;;;;13.10;97913.40;;;;110548;1254;41250;-64
2022/06/18 04:07:24;;;;;;;8.90;4.20;;;;;13.20;97915.40;;;;110440;1254;41251;-65
2022/06/18 04:10:22;;;;;;;7.00;3.40;;;;;13.34;97913.80;;;;110600;1254;41509;-66
2022/06/18 04:12:54;;;;;;;7.70;3.90;;;;;13.40;97913.40;;;;110547;1254;41196;-65
2022/06/18 04:15:57;;;;;;;7.80;3.50;;;;;13.60;97913.40;;;;110535;1255;40749;-65
2022/06/18 04:18:30;;;;;;;7.70;3.40;;;;;13.72;97917.40;;;;110489;1253;41268;-65
2022/06/18 04:21:02;;;;;;;7.40;3.40;;;;;13.90;97918.60;;;;110509;1254;42603;-66
2022/06/18 04:23:34;;;;;;;7.60;3.60;;;;;14.36;97915.20;;;;110511;1254;41306;-66
2022/06/18 04:26:05;;;;;;;7.00;3.50;;;;;15.88;97890.40;;;;110427;1256;41135;-66
2022/06/18 04:28:35;;;;;;;7.60;3.40;;;;;17.30;97889.80;;;;110524;1254;41650;-66
2022/06/18 04:31:08;;;;;;;8.50;4.00;;;;;18.64;97887.00;;;;110449;1254;41163;-66
2022/06/18 04:33:42;;;;;;;8.40;4.00;;;;;19.64;97879.00;;;;110513;1254;41638;-65
2022/06/18 04:36:32;;;;;;;6.90;3.10;;;;;20.12;97879.80;;;;110524;1254;41716;-64
2022/06/18 04:39:15;;;;;;;5.50;2.50;;;;;21.00;97877.80;;;;110530;1253;41640;-65
2022/06/18 04:41:50;;;;;;;5.80;2.30;;;;;21.92;97877.80;;;;110599;1254;41474;-65
2022/06/18 04:44:22;;;;;;;5.50;2.30;;;;;22.76;97874.40;;;;110497;1253;41248;-65
2022/06/18 04:47:06;;;;;;;6.50;2.60;;;;;23.52;97880.60;;;;110543;1253;41916;-65
2022/06/18 04:49:36;;;;;;;7.30;2.50;;;;;24.20;97879.20;;;;110550;1253;41250;-66
2022/06/18 04:52:07;;;;;;;4.90;2.30;;;;;24.70;97878.20;;;;110508;1254;42467;-65
2022/06/18 04:54:52;;;;;;;;;;;;;25.26;97878.00;;;;110565;1254;41259;-66
2022/06/18 04:57:22;;;;;;;5.30;2.40;;;;;25.94;97873.00;;;;110465;1253;41133;-65
2022/06/18 04:59:52;;;;;;;4.40;2.30;;;;;26.16;97878.40;;;;110522;1254;41139;-66
2022/06/18 05:02:29;;;;;;;5.10;2.40;;;;;26.40;97873.60;;;;110583;1254;41848;-66
2022/06/18 05:05:27;;;;;;;4.50;2.20;;;;;26.60;97880.40;;;;110188;1255;41167;-65
2022/06/18 05:08:15;;;;;;;5.90;2.60;;;;;26.90;97875.20;;;;110479;1254;41620;-66
2022/06/18 05:10:53;;;;;;;5.40;2.30;;;;;27.00;97874.40;;;;110554;1252;41145;-65
2022/06/18 05:13:45;;;;;;;5.90;2.40;;;;;26.84;97878.80;;;;110592;1253;41176;-65
2022/06/18 05:16:28;;;;;;;5.40;2.30;;;;;27.10;97881.00;;;;110656;1253;41303;-66
2022/06/18 05:18:57;;;;;;;5.20;2.40;;;;;27.44;97886.80;;;;110574;1254;41653;-64
2022/06/18 05:21:27;;;;;;;6.20;2.40;;;;;27.44;97884.20;;;;110511;1254;41176;-65
2022/06/18 05:23:58;;;;;;;5.20;2.20;;;;;27.42;97888.00;;;;110538;1254;41147;-64
2022/06/18 05:26:27;;;;;;;5.90;2.40;;;;;27.62;97888.00;;;;110494;1254;42469;-65
2022/06/18 05:28:57;;;;;;;7.90;2.20;;;;;27.02;97911.40;;;;110395;1254;41154;-65
2022/06/18 05:31:27;;;;;;;5.70;2.60;;;;;26.02;97923.40;;;;110611;1251;41381;-65
2022/06/18 05:33:56;;;;;;;6.50;2.30;;;;;24.86;97925.80;;;;110474;1254;41141;-66
2022/06/18 05:36:26;;;;;;;4.80;2.30;;;;;23.94;97929.80;;;;110679;1251;41252;-65
2022/06/18 05:38:59;;;;;;;6.00;2.60;;;;;23.10;97938.00;;;;110503;1251;43347;-66
2022/06/18 05:41:30;;;;;;;6.60;2.90;;;;;22.80;97936.20;;;;110576;1251;41607;-65
2022/06/18 05:44:00;;;;;;;6.40;2.90;;;;;22.24;97951.80;;;;110705;1254;41902;-65
2022/06/18 05:46:31;;;;;;;5.00;2.30;;;;;21.74;97950.40;;;;110653;1251;41164;-66
2022/06/18 05:49:01;;;;;;;6.50;3.00;;;;;21.60;97947.60;;;;110497;1254;41693;-65
2022/06/18 05:51:30;;;;;;;5.20;2.40;;;;;21.20;97952.60;;;;110613;1253;41719;-65
2022/06/18 05:53:59;;;;;;;6.00;2.30;;;;;20.90;97956.80;;;;110573;1254;41258;-65
2022/06/18 05:56:45;;;;;;;6.50;2.80;;;;;21.06;97953.60;;;;110559;1252;41146;-65
2022/06/18 05:59:36;;;;;;;7.00;3.00;;;;;21.90;97923.80;;;;110452;1254;42496;-65
2022/06/18 06:02:11;;;;;;;10.50;3.10;;;;;22.30;97920.20;;;;110562;1252;41257;-65
2022/06/18 06:04:42;;;;;;;5.70;2.60;;;;;22.78;97918.80;;;;110796;1251;41369;-65
2022/06/18 06:07:20;;;;;;;10.00;2.90;;;;;23.60;97913.00;;;;110577;1254;41592;-67
2022/06/18 06:12:39;;;;;;;7.00;2.70;;;;;24.72;97914.40;;;;110607;1254;41190;-66
2022/06/18 06:15:10;;;;;;;5.60;2.40;;;;;25.50;97916.80;;;;110514;1254;41195;-65
2022/06/18 06:17:38;;;;;;;3.90;2.10;;;;;25.98;97913.60;;;;110553;1254;41137;-65
2022/06/18 06:20:20;;;;;;;5.10;2.40;;;;;26.20;97903.60;;;;110541;1254;41743;-66
2022/06/18 06:22:49;;;;;;;5.30;2.30;;;;;26.22;97905.00;;;;110712;1251;41254;-66
2022/06/18 06:25:18;;;;;;;4.50;2.20;;;;;26.60;97913.20;;;;110563;1254;41595;-66
2022/06/18 06:27:48;;;;;;;5.90;2.20;;;;;26.90;97904.20;;;;110691;1251;42378;-66
2022/06/18 06:30:18;;;;;;;4.90;2.20;;;;;27.40;97912.40;;;;110683;1251;41402;-67
2022/06/18 06:32:47;;;;;;;4.00;2.00;;;;;27.80;97913.00;;;;110648;1251;41147;-67
2022/06/18 06:35:16;;;;;;;11.30;2.60;;;;;28.42;97914.80;;;;110619;1254;41898;-64
2022/06/18 06:37:45;;;;;;;7.10;2.50;;;;;28.30;97922.40;;;;110639;1251;41308;-66
2022/06/18 06:40:15;;;;;;;4.70;2.10;;;;;28.50;97923.20;;;;110719;1251;41403;-66
2022/06/18 06:42:49;;;;;;;6.00;2.20;;;;;28.70;97923.80;;;;110569;1253;41605;-66
2022/06/18 06:45:21;;;;;;;5.60;2.20;;;;;29.00;97920.80;;;;110648;1251;41259;-66
2022/06/18 06:47:50;;;;;;;5.00;2.10;;;;;28.84;97921.20;;;;110626;1251;41639;-67
2022/06/18 06:50:20;;;;;;;4.10;2.00;;;;;28.60;97921.20;;;;110592;1251;41156;-65
2022/06/18 06:52:50;;;;;;;8.30;2.30;;;;;28.40;97921.20;;;;110599;1254;41250;-66
2022/06/18 06:58:11;;;;;;;3.50;1.70;;;;;28.88;97916.00;;;;110581;1251;41896;-67
2022/06/18 07:00:52;;;;;;;4.50;1.90;;;;;29.20;97922.40;;;;110596;1251;41184;-67
2022/06/18 07:03:27;;;;;;;4.00;1.90;;;;;29.88;97922.00;;;;110453;1253;41198;-67
2022/06/18 07:05:57;;;;;;;4.10;1.90;;;;;29.70;97927.00;;;;110573;1251;41268;-67
2022/06/18 07:08:26;;;;;;;3.60;1.80;;;;;29.98;97922.40;;;;110712;1251;42017;-67
2022/06/18 07:10:56;;;;;;;4.80;2.10;;;;;29.28;97924.40;;;;110570;1254;41745;-67
2022/06/18 07:13:30;;;;;;;6.30;2.30;;;;;27.78;97926.60;;;;110574;1253;41255;-68
2022/06/18 07:15:59;;;;;;;4.10;2.00;;;;;26.54;97932.60;;;;110635;1251;41275;-66
2022/06/18 07:18:32;;;;;;;6.10;2.10;;;;;25.92;97936.00;;;;110429;1253;41623;-67
2022/06/18 07:21:06;;;;;;;4.50;2.10;;;;;25.30;97935.20;;;;110736;1251;41377;-66
2022/06/18 07:23:35;;;;;;;4.80;2.30;;;;;25.00;97936.00;;;;110592;1253;41156;-67
2022/06/18 07:26:04;;;;;;;5.80;2.20;;;;;24.76;97941.00;;;;110656;1251;41614;-66
2022/06/18 07:28:40;;;;;;;5.10;2.10;;;;;24.60;97939.00;;;;110184;1251;500128;-67
2022/06/18 07:31:27;;;;;;;6.40;2.20;;;;;24.60;97945.20;;;;110771;1251;41697;-66
2022/06/18 07:33:58;;;;;;;4.10;1.80;;;;;24.50;97945.60;;;;110526;1254;41720;-67
2022/06/18 07:36:27;;;;;;;2.70;1.70;;;;;24.70;97947.20;;;;110767;1251;41197;-67
2022/06/18 07:38:56;;;;;;;2.60;1.80;;;;;24.82;97941.40;;;;110525;1254;41273;-67
2022/06/18 07:41:33;;;;;;;4.10;1.90;;;;;25.00;97934.40;;;;110542;1251;42487;-66
2022/06/18 07:44:03;;;;;;;4.90;1.90;;;;;25.20;97935.40;;;;110560;1254;42404;-66
2022/06/18 07:46:32;;;;;;;3.60;1.70;;;;;25.26;97939.80;;;;110632;1251;41138;-66
2022/06/18 07:49:01;;;;;;;2.20;1.50;;;;;25.30;97933.20;;;;110619;1252;41767;-67
2022/06/18 07:51:30;;;;;;;2.90;1.70;;;;;25.40;97940.00;;;;110616;1251;41143;-67
2022/06/18 07:53:59;;;;;;;3.50;1.90;;;;;25.30;97935.80;;;;110545;1253;41208;-66
2022/06/18 07:56:28;;;;;;;4.10;1.90;;;;;25.30;97935.40;;;;110628;1251;42338;-67
2022/06/18 07:58:58;;;;;;;3.60;1.70;;;;;25.30;97936.20;;;;110739;1253;41158;-67
2022/06/18 08:01:28;;;;;;;3.70;1.60;;;;;25.40;97942.00;;;;110613;1252;41160;-67
2022/06/18 08:03:57;;;;;;;3.80;1.70;;;;;25.60;97939.60;;;;110765;1251;41164;-68
2022/06/18 08:06:26;;;;;;;2.80;1.70;;;;;25.60;97936.40;;;;110809;1251;41134;-66
2022/06/18 08:08:56;;;;;;;4.60;1.60;;;;;25.70;97939.20;;;;110652;1251;41360;-66
2022/06/18 08:11:28;;;;;;;5.40;1.50;;;;;25.70;97942.20;;;;110655;1251;41269;-67
2022/06/18 08:13:57;;;;;;;3.30;1.70;;;;;25.68;97937.20;;;;110774;1251;41210;-66
2022/06/18 08:16:27;;;;;;;2.80;1.50;;;;;25.66;97940.80;;;;110808;1251;41250;-66
2022/06/18 08:18:56;;;;;;;3.20;1.60;;;;;25.60;97949.60;;;;110698;1251;41153;-67
2022/06/18 08:21:33;;;;;;;2.70;1.50;;;;;25.60;97948.40;;;;110593;1253;41161;-68
2022/06/18 08:24:07;;;;;;;2.70;1.50;;;;;25.60;97944.40;;;;110743;1251;41131;-68
2022/06/18 08:26:38;;;;;;;3.80;1.60;;;;;25.70;97946.00;;;;110694;1251;41134;-68
2022/06/18 08:29:13;;;;;;;3.00;1.60;;;;;25.84;97943.60;;;;110597;1253;41242;-67
2022/06/18 08:31:42;;;;;;;2.10;1.40;;;;;25.92;97938.20;;;;110568;1253;41189;-68
2022/06/18 08:34:12;;;;;;;2.00;1.60;;;;;26.10;97937.80;;;;110614;1254;42076;-65
2022/06/18 08:36:48;;;;;;;2.50;1.50;;;;;26.20;97936.20;;;;110603;1253;41648;-68
2022/06/18 08:39:18;;;;;;;4.00;1.70;;;;;26.28;97936.20;;;;110642;1253;41161;-68
2022/06/18 08:41:58;;;;;;;3.60;1.50;;;;;26.40;97939.20;;;;110630;1251;42651;-67
2022/06/18 08:44:40;;;;;;;2.50;1.40;;;;;26.56;97939.20;;;;110595;1252;41280;-67
2022/06/18 08:47:17;;;;;;;2.70;1.50;;;;;26.62;97942.00;;;;110767;1251;41143;-66
2022/06/18 08:49:59;;;;;;;2.40;1.40;;;;;26.40;97935.80;;;;110691;1251;41133;-68
2022/06/18 08:52:46;;;;;;;4.10;1.50;;;;;26.54;97932.20;;;;110577;1252;41249;-68
2022/06/18 08:55:51;;;;;;;2.40;1.50;;;;;26.70;97934.20;;;;110522;1253;41150;-67
2022/06/18 08:58:25;;;;;;;2.40;1.50;;;;;26.80;97932.20;;;;110541;1251;41444;-68
2022/06/18 09:01:18;;;;;;;3.60;1.30;;;;;27.00;97933.60;;;;110585;1253;41152;-67
2022/06/18 09:04:16;;;;;;;2.90;1.60;;;;;27.18;97926.60;;;;110556;1251;41264;-67
2022/06/18 09:07:00;;;;;;;2.40;1.40;;;;;27.42;97928.40;;;;110629;1252;42386;-68
2022/06/18 09:09:48;;;;;;;2.30;1.40;;;;;27.60;97921.20;;;;110611;1253;41157;-68
2022/06/18 09:12:22;;;;;;;3.50;1.50;;;;;27.70;97917.00;;;;110577;1251;42262;-67
2022/06/18 09:15:06;;;;;;;2.60;1.40;;;;;27.74;97924.00;;;;110523;1251;41146;-68
2022/06/18 09:17:42;;;;;;;5.50;1.50;;;;;28.08;97920.20;;;;110654;1253;41942;-68
2022/06/18 09:20:20;;;;;;;3.70;1.30;;;;;28.50;97917.40;;;;110560;1253;41178;-66
2022/06/18 09:22:56;;;;;;;5.10;1.60;;;;;29.04;97909.60;;;;110647;1251;41171;-67
2022/06/18 09:25:30;;;;;;;2.70;1.40;;;;;29.56;97913.40;;;;110656;1253;41149;-67
2022/06/18 09:28:05;;;;;;;1.30;1.20;;;;;30.16;97912.60;;;;110588;1253;41258;-66
2022/06/18 09:30:51;;;;;;;2.00;1.20;;;;;31.18;97913.20;;;;110618;1251;41154;-66
2022/06/18 09:33:27;;;;;;;3.90;1.30;;;;;32.00;97897.40;;;;110570;1251;42081;-68
2022/06/18 09:36:01;;;;;;;2.90;1.40;;;;;32.42;97888.80;;;;110621;1253;42675;-67
2022/06/18 09:38:59;;;;;;;3.10;1.50;;;;;32.74;97891.20;;;;110605;1251;41960;-68
2022/06/18 09:41:53;;;;;;;3.40;1.40;;;;;32.58;97888.20;;;;110634;1253;42361;-68
2022/06/18 09:44:41;;;;;;;2.90;1.40;;;;;32.64;97888.20;;;;110675;1251;41176;-68
2022/06/18 09:47:16;;;;;;;3.00;1.50;;;;;32.70;97896.20;;;;110705;1253;41547;-66
2022/06/18 09:49:46;;;;;;;2.60;1.40;;;;;32.18;97900.20;;;;110637;1251;41270;-67
2022/06/18 09:52:31;;;;;;;;;;;;;31.78;97891.00;;;;110489;1253;41402;-67
2022/06/18 09:55:08;;;;;;;1.50;1.20;;;;;32.20;97903.20;;;;110558;1254;41684;-67
2022/06/18 09:57:40;;;;;;;4.30;1.50;;;;;32.76;97900.40;;;;110550;1253;41275;-67
2022/06/18 10:00:13;;;;;;;2.50;1.30;;;;;33.32;97895.40;;;;110502;1254;41266;-68
2022/06/18 10:02:58;;;;;;;2.30;1.40;;;;;33.16;97895.80;;;;110440;1254;41303;-68
2022/06/18 10:08:20;;;;;;;2.00;1.40;;;;;32.76;97896.60;;;;110547;1253;41295;-67
2022/06/18 10:10:54;;;;;;;3.20;1.30;;;;;33.36;97888.00;;;;110573;1253;42239;-68
2022/06/18 10:13:26;;;;;;;3.10;1.40;;;;;34.06;97890.80;;;;110625;1254;41215;-68
2022/06/18 10:16:03;;;;;;;2.60;1.40;;;;;34.58;97888.40;;;;110811;1253;41417;-67
2022/06/18 10:18:32;;;;;;;2.20;1.30;;;;;34.56;97883.00;;;;110722;1253;41876;-66
2022/06/18 10:21:38;;;;;;;2.80;1.50;;;;;34.60;97885.80;;;;110761;1251;41287;-67
2022/06/18 10:24:16;;;;;;;12.00;5.50;;;;;34.50;97892.40;;;;110246;1257;41158;-69
2022/06/18 10:27:02;;;;;;;15.80;5.80;;;;;33.86;97898.60;;;;110387;1257;41542;-65
2022/06/18 10:29:37;;;;;;;20.00;10.20;;;;;33.00;97903.20;;;;110234;1257;41200;-68
2022/06/18 10:32:26;;;;;;;12.20;6.00;;;;;32.10;97904.20;;;;110303;1257;41163;-67
2022/06/18 10:35:16;;;;;;;6.50;2.60;;;;;30.94;97907.20;;;;110404;1256;41293;-67
2022/06/18 10:38:12;;;;;;;4.30;2.00;;;;;30.40;97906.60;;;;110409;1257;41595;-68
2022/06/18 10:40:46;;;;;;;3.10;1.60;;;;;30.36;97900.80;;;;110303;1257;41511;-68
2022/06/18 10:43:28;;;;;;;55.30;27.90;;;;;30.70;97902.80;;;;110376;1257;41166;-68
2022/06/18 10:46:06;;;;;;;16.00;8.20;;;;;31.10;97902.80;;;;110339;1257;42053;-66
2022/06/18 10:48:37;;;;;;;8.70;3.70;;;;;31.30;97906.60;;;;110249;1257;41397;-68
2022/06/18 10:51:16;;;;;;;3.70;1.80;;;;;31.46;97899.60;;;;110259;1259;41523;-68
2022/06/18 10:53:51;;;;;;;7.20;2.60;;;;;31.72;97903.60;;;;110272;1257;41389;-67
2022/06/18 10:56:28;;;;;;;3.40;1.50;;;;;32.28;97904.00;;;;110274;1257;41203;-68
2022/06/18 10:59:02;;;;;;;3.30;1.60;;;;;32.12;97905.40;;;;110162;1258;41248;-68
2022/06/18 11:01:46;;;;;;;1.80;1.30;;;;;32.38;97900.00;;;;110583;1253;41762;-68
2022/06/18 11:04:29;;;;;;;2.20;1.40;;;;;33.14;97899.40;;;;110843;1251;41265;-68
2022/06/18 11:07:03;;;;;;;3.30;1.30;;;;;33.32;97896.20;;;;110614;1254;41272;-68
2022/06/18 11:09:50;;;;;;;1.70;1.30;;;;;33.26;97893.80;;;;110702;1253;41712;-69
2022/06/18 11:12:27;;;;;;;3.60;1.80;;;;;34.00;97901.40;;;;110808;1251;41189;-66
2022/06/18 11:14:56;;;;;;;5.50;2.10;;;;;33.80;97903.40;;;;110821;1251;41199;-67
2022/06/18 11:17:41;;;;;;;4.20;2.00;;;;;33.10;97900.20;;;;110558;1251;41746;-68
2022/06/18 11:20:17;;;;;;;5.10;2.00;;;;;32.60;97899.40;;;;110648;1251;41140;-68
2022/06/18 11:22:52;;;;;;;20.70;12.40;;;;;32.00;97903.80;;;;110607;1253;41144;-69
2022/06/18 11:25:36;;;;;;;16.70;9.80;;;;;31.44;97901.60;;;;110710;1251;41131;-68
2022/06/18 11:28:19;;;;;;;16.00;9.70;;;;;31.20;97904.60;;;;110905;1251;41158;-69
2022/06/18 11:30:49;;;;;;;7.70;3.80;;;;;31.88;97887.60;;;;110538;1251;41438;-67
2022/06/18 11:33:24;;;;;;;6.80;2.80;;;;;32.88;97884.80;;;;110584;1251;42492;-66
2022/06/18 11:35:54;;;;;;;16.00;8.80;;;;;34.02;97879.80;;;;110661;1254;41194;-67
2022/06/18 11:38:32;;;;;;;14.50;8.00;;;;;35.12;97873.00;;;;110569;1253;41698;-67
2022/06/18 11:41:07;;;;;;;3.90;1.80;;;;;36.16;97870.60;;;;110795;1251;41368;-67
2022/06/18 11:43:55;;;;;;;4.60;1.50;;;;;37.12;97862.80;;;;110509;1253;41726;-66
2022/06/18 11:46:38;;;;;;;4.60;1.90;;;;;35.30;97867.40;;;;110517;1253;41158;-67
2022/06/18 11:49:07;;;;;;;6.10;2.50;;;;;34.14;97876.80;;;;110564;1253;42371;-66
2022/06/18 11:51:44;;;;;;;3.50;1.80;;;;;33.58;97877.80;;;;110533;1253;41282;-67
2022/06/18 11:54:24;;;;;;;2.20;1.40;;;;;33.10;97875.80;;;;110759;1251;41148;-67
2022/06/18 11:57:24;;;;;;;2.00;1.30;;;;;32.58;97871.00;;;;110743;1251;41264;-66
2022/06/18 12:00:11;;;;;;;3.30;1.30;;;;;32.10;97873.00;;;;110713;1251;41146;-67
2022/06/18 12:02:46;;;;;;;2.20;1.30;;;;;31.46;97868.80;;;;110649;1251;42480;-66
2022/06/18 12:05:32;;;;;;;1.50;1.30;;;;;31.40;97865.00;;;;110686;1253;41827;-67
2022/06/18 12:08:03;;;;;;;2.30;1.30;;;;;31.50;97865.40;;;;110555;1253;41411;-68
2022/06/18 12:10:46;;;;;;;3.00;1.40;;;;;31.40;97865.00;;;;110560;1253;41340;-68
2022/06/18 12:13:43;;;;;;;3.90;1.40;;;;;31.34;97863.60;;;;110715;1251;41744;-67
2022/06/18 12:16:26;;;;;;;1.70;1.20;;;;;31.04;97860.40;;;;110675;1251;41706;-68
2022/06/18 12:18:55;;;;;;;2.20;1.30;;;;;30.80;97858.40;;;;110678;1251;41131;-68
2022/06/18 12:21:56;;;;;;;2.80;1.50;;;;;30.46;97856.60;;;;110736;1251;41248;-65
2022/06/18 12:24:47;;;;;;;203.20;83.30;;;;;30.40;97859.60;;;;110503;1251;41202;-67
2022/06/18 12:27:23;;;;;;;125.50;50.20;;;;;30.48;97859.80;;;;110522;1253;41146;-67
2022/06/18 12:29:58;;;;;;;20.90;7.80;;;;;30.40;97858.00;;;;110576;1253;42178;-67
2022/06/18 12:32:41;;;;;;;5.50;2.00;;;;;30.40;97852.00;;;;110630;1251;41735;-67
2022/06/18 12:35:35;;;;;;;10.00;3.40;;;;;30.10;97857.60;;;;110597;1253;41263;-66
2022/06/18 12:38:10;;;;;;;5.30;1.80;;;;;29.80;97855.40;;;;110586;1251;42580;-66
2022/06/18 12:40:53;;;;;;;4.00;1.60;;;;;29.86;97851.80;;;;110816;1252;41268;-67
2022/06/18 12:43:27;;;;;;;3.50;1.50;;;;;29.80;97847.60;;;;110601;1253;42506;-66
2022/06/18 12:46:05;;;;;;;2.20;1.50;;;;;29.50;97842.00;;;;110727;1253;41622;-67
2022/06/18 12:48:53;;;;;;;2.10;1.40;;;;;29.40;97842.80;;;;110760;1250;41353;-68
2022/06/18 12:51:43;;;;;;;3.80;1.70;;;;;28.90;97840.80;;;;110772;1251;41149;-67
2022/06/18 12:54:35;;;;;;;4.50;2.00;;;;;28.70;97836.60;;;;110605;1251;41167;-67
2022/06/18 12:57:39;;;;;;;3.60;1.60;;;;;28.60;97832.60;;;;110579;1251;41473;-67
2022/06/18 13:00:23;;;;;;;2.80;1.50;;;;;28.24;97825.60;;;;110629;1252;41172;-67
2022/06/18 13:03:15;;;;;;;2.90;1.50;;;;;27.90;97825.00;;;;110522;1253;41849;-67
2022/06/18 13:05:53;;;;;;;2.10;1.50;;;;;28.00;97821.60;;;;110171;1252;41599;-67
2022/06/18 13:08:50;;;;;;;2.00;1.40;;;;;28.00;97818.00;;;;110665;1253;40724;-68